createdAt,value
2022-10-03T00:02:55.114Z,70187.22
2022-10-03T00:06:09.832Z,70219.47
2022-10-03T00:09:14.066Z,70206.53
2022-10-03T00:11:59.141Z,70182.44
2022-10-03T00:14:50.137Z,70202.66
2022-10-03T00:17:37.993Z,70221.22
2022-10-03T00:20:45.174Z,70187.75
2022-10-03T00:23:35.833Z,70220.38
2022-10-03T00:26:28.988Z,70187.16
2022-10-03T00:29:14.189Z,70161.34
2022-10-03T00:31:57.414Z,70179.56
2022-10-03T00:34:48.005Z,70156.09
2022-10-03T00:37:44.945Z,70203.06
2022-10-03T00:40:46.784Z,70155.22
2022-10-03T00:43:44.759Z,70143.81
2022-10-03T00:46:17.768Z,70151.75
2022-10-03T00:49:00.233Z,70169.69
2022-10-03T00:51:45.367Z,70179.63
2022-10-03T00:54:12.241Z,70179.63
2022-10-03T00:56:53.270Z,70153.78
2022-10-03T00:59:33.001Z,70230.44
2022-10-03T01:02:29.345Z,70162.53
2022-10-03T01:05:23.644Z,70181.91
2022-10-03T01:08:51.207Z,70165.97
2022-10-03T01:11:20.896Z,70188.63
2022-10-03T01:14:05.106Z,70173.91
2022-10-03T01:17:17.790Z,70217.72
2022-10-03T01:20:14.431Z,70169.47
2022-10-03T01:23:05.808Z,70217.69
2022-10-03T01:26:07.326Z,70226.47
2022-10-03T01:29:12.657Z,70204.13
2022-10-03T01:32:10.893Z,70215.28
2022-10-03T01:34:52.810Z,70216.75
2022-10-03T01:37:31.826Z,70242.38
2022-10-03T01:40:08.879Z,70221.78
2022-10-03T01:42:44.886Z,70224.75
2022-10-03T01:45:47.539Z,70210.63
2022-10-03T01:48:27.146Z,70170.47
2022-10-03T01:51:13.982Z,70238.88
2022-10-03T01:54:01.771Z,70177.41
2022-10-03T01:56:40.197Z,70220.03
2022-10-03T01:59:23.250Z,70201.81
2022-10-03T02:02:22.684Z,70218.28
2022-10-03T02:05:23.117Z,70183.56
2022-10-03T02:08:17.817Z,70214.16
2022-10-03T02:11:04.397Z,70184.72
2022-10-03T02:14:05.904Z,70195.31
2022-10-03T02:16:57.395Z,70210.38
2022-10-03T02:19:42.228Z,70185.44
2022-10-03T02:22:34.972Z,70205.66
2022-10-03T02:25:20.728Z,70227.16
2022-10-03T02:28:08.827Z,70212.44
2022-10-03T02:31:13.958Z,70179.34
2022-10-03T02:34:21.991Z,70182.59
2022-10-03T02:37:16.716Z,70183.19
2022-10-03T02:40:30.654Z,70205.50
2022-10-03T02:43:27.548Z,70185.47
2022-10-03T02:46:03.428Z,70173.13
2022-10-03T02:49:26.211Z,70140.88
2022-10-03T02:52:11.842Z,70172.34
2022-10-03T02:54:51.608Z,70174.09
2022-10-03T02:57:37.080Z,70164.38
2022-10-03T03:00:34.134Z,70142.00
2022-10-03T03:03:25.692Z,70188.75
2022-10-03T03:06:33.506Z,70188.13
2022-10-03T03:10:10.915Z,70181.06
2022-10-03T03:13:42.685Z,70190.75
2022-10-03T03:16:52.954Z,70209.53
2022-10-03T03:20:13.733Z,70201.53
2022-10-03T03:23:10.742Z,70225.38
2022-10-03T03:26:31.821Z,70202.47
2022-10-03T03:29:20.393Z,70206.59
2022-10-03T03:32:28.331Z,70207.47
2022-10-03T03:35:36.775Z,70173.97
2022-10-03T03:38:46.392Z,70156.94
2022-10-03T03:41:50.523Z,70213.63
2022-10-03T03:45:07.959Z,70234.19
2022-10-03T03:48:03.106Z,70211.88
2022-10-03T03:50:48.453Z,70160.16
2022-10-03T03:53:36.858Z,70199.81
2022-10-03T03:56:49.591Z,70192.81
2022-10-03T03:59:50.185Z,70178.41
2022-10-03T04:02:40.930Z,70208.94
2022-10-03T04:06:05.897Z,70164.00
2022-10-03T04:09:00.751Z,70170.16
2022-10-03T04:11:54.310Z,70184.56
2022-10-03T04:14:55.247Z,70202.44
2022-10-03T04:18:02.702Z,70203.94
2022-10-03T04:20:35.403Z,70187.16
2022-10-03T04:23:11.582Z,70200.97
2022-10-03T04:26:25.518Z,70190.13
2022-10-03T04:29:11.713Z,70163.41
2022-10-03T04:32:26.571Z,70176.63
2022-10-03T04:35:28.886Z,70244.78
2022-10-03T04:38:05.222Z,70194.88
2022-10-03T04:41:05.138Z,70194.28
2022-10-03T04:44:26.170Z,70213.41
2022-10-03T04:47:31.330Z,70206.31
2022-10-03T04:50:13.557Z,70174.28
2022-10-03T04:53:18.048Z,70230.44
2022-10-03T04:55:56.800Z,70170.19
2022-10-03T04:58:40.597Z,70186.66
2022-10-03T05:01:35.250Z,70219.81
2022-10-03T05:04:30.529Z,70187.81
2022-10-03T05:07:20.586Z,70193.41
2022-10-03T05:10:35.836Z,70197.78
2022-10-03T05:13:34.789Z,70219.25
2022-10-03T05:16:29.178Z,70158.72
2022-10-03T05:19:35.959Z,70174.88
2022-10-03T05:22:17.536Z,70210.75
2022-10-03T05:25:33.553Z,70179.34
2022-10-03T05:28:31.155Z,70159.69
2022-10-03T05:31:35.410Z,70188.50
2022-10-03T05:34:23.567Z,70136.84
2022-10-03T05:37:25.666Z,70167.69
2022-10-03T05:40:21.087Z,70202.59
2022-10-03T05:42:52.495Z,70141.97
2022-10-03T05:45:42.228Z,70151.53
2022-10-03T05:49:03.937Z,70138.03
2022-10-03T05:52:04.431Z,70183.22
2022-10-03T05:54:59.192Z,70207.03
2022-10-03T05:58:07.809Z,70211.41
2022-10-03T06:01:24.023Z,70157.97
2022-10-03T06:04:18.591Z,70184.34
2022-10-03T06:07:09.641Z,70179.63
2022-10-03T06:10:21.770Z,70213.09
2022-10-03T06:13:47.992Z,70201.66
2022-10-03T06:16:40.673Z,70188.44
2022-10-03T06:19:40.804Z,70193.69
2022-10-03T06:22:22.849Z,70208.34
2022-10-03T06:25:26.081Z,70205.69
2022-10-03T06:28:36.146Z,70213.66
2022-10-03T06:31:32.538Z,70187.16
2022-10-03T06:34:32.933Z,70198.91
2022-10-03T06:37:42.303Z,70217.06
2022-10-03T06:40:49.408Z,70236.19
2022-10-03T06:43:56.971Z,70244.09
2022-10-03T06:46:47.618Z,70259.38
2022-10-03T06:49:53.348Z,70256.44
2022-10-03T06:52:38.319Z,70243.72
2022-10-03T06:55:17.216Z,70242.81
2022-10-03T06:58:08.270Z,70261.63
2022-10-03T07:01:22.304Z,70222.22
2022-10-03T07:04:07.992Z,70242.78
2022-10-03T07:07:09.023Z,70262.81
2022-10-03T07:10:12.547Z,70264.81
2022-10-03T07:13:28.610Z,70294.22
2022-10-03T07:16:26.525Z,70339.16
2022-10-03T07:19:15.595Z,70324.44
2022-10-03T07:21:54.412Z,70263.53
2022-10-03T07:25:33.504Z,70302.69
2022-10-03T07:28:24.520Z,70254.41
2022-10-03T07:31:08.507Z,70301.47
2022-10-03T07:34:13.293Z,70271.47
2022-10-03T07:37:27.867Z,70274.53
2022-10-03T07:40:13.992Z,70217.31
2022-10-03T07:43:06.016Z,70245.03
2022-10-03T07:46:24.816Z,70188.50
2022-10-03T07:49:29.582Z,70200.97
2022-10-03T07:52:22.361Z,70255.00
2022-10-03T07:55:26.959Z,70232.94
2022-10-03T07:58:39.527Z,70281.66
2022-10-03T08:01:24.001Z,70250.16
2022-10-03T08:04:41.409Z,70293.31
2022-10-03T08:07:23.375Z,70268.66
2022-10-03T08:10:30.477Z,70293.69
2022-10-03T08:13:26.775Z,70217.56
2022-10-03T08:16:11.769Z,70272.88
2022-10-03T08:19:10.543Z,70305.34
2022-10-03T08:22:26.390Z,70314.09
2022-10-03T08:25:16.052Z,70328.81
2022-10-03T08:28:30.157Z,70310.19
2022-10-03T08:31:24.846Z,70290.81
2022-10-03T08:34:04.929Z,70332.78
2022-10-03T08:37:22.951Z,70323.88
2022-10-03T08:40:20.909Z,70371.53
2022-10-03T08:43:26.432Z,70364.94
2022-10-03T08:45:59.387Z,70343.44
2022-10-03T08:48:48.637Z,70400.78
2022-10-03T08:51:57.493Z,70393.31
2022-10-03T08:54:40.010Z,70413.13
2022-10-03T08:57:10.068Z,70392.28
2022-10-03T09:00:04.790Z,70408.78
2022-10-03T09:03:32.226Z,70382.31
2022-10-03T09:06:27.021Z,70413.47
2022-10-03T09:09:36.354Z,70393.63
2022-10-03T09:12:33.326Z,70415.13
2022-10-03T09:15:30.019Z,70437.44
2022-10-03T09:18:52.232Z,70465.16
2022-10-03T09:21:37.122Z,70486.31
2022-10-03T09:24:35.158Z,70428.91
2022-10-03T09:27:49.470Z,70504.28
2022-10-03T09:31:07.014Z,70585.03
2022-10-03T09:33:55.392Z,70590.00
2022-10-03T09:37:04.581Z,70573.72
2022-10-03T09:40:05.264Z,70549.25
2022-10-03T09:42:59.279Z,70552.56
2022-10-03T09:45:46.707Z,70658.94
2022-10-03T09:48:42.077Z,70883.69
2022-10-03T09:51:34.421Z,71049.72
2022-10-03T09:54:10.849Z,71210.47
2022-10-03T09:57:12.255Z,71154.78
2022-10-03T10:00:13.260Z,71186.22
2022-10-03T10:02:49.016Z,71102.53
2022-10-03T10:05:52.407Z,70829.38
2022-10-03T10:09:02.502Z,70741.28
2022-10-03T10:12:09.163Z,70784.09
2022-10-03T10:15:06.013Z,70736.28
2022-10-03T10:17:59.664Z,70664.69
2022-10-03T10:20:47.702Z,70618.13
2022-10-03T10:23:48.753Z,70610.56
2022-10-03T10:26:43.713Z,70596.44
2022-10-03T10:30:03.047Z,70538.56
2022-10-03T10:32:54.241Z,70581.00
2022-10-03T10:35:52.046Z,70570.06
2022-10-03T10:38:28.762Z,70575.13
2022-10-03T10:41:43.685Z,70618.72
2022-10-03T10:44:47.284Z,70872.19
2022-10-03T10:47:56.475Z,71199.22
2022-10-03T10:50:32.633Z,71174.88
2022-10-03T10:53:56.099Z,70858.97
2022-10-03T10:57:04.634Z,70721.09
2022-10-03T11:00:08.426Z,70939.03
2022-10-03T11:02:50.531Z,71059.78
2022-10-03T11:05:57.484Z,70961.00
2022-10-03T11:08:59.911Z,70863.63
2022-10-03T11:11:51.867Z,70816.47
2022-10-03T11:15:03.692Z,70812.53
2022-10-03T11:18:21.700Z,70790.84
2022-10-03T11:21:29.312Z,70751.78
2022-10-03T11:24:37.941Z,70723.84
2022-10-03T11:27:53.542Z,70731.75
2022-10-03T11:30:54.011Z,70769.44
2022-10-03T11:34:00.951Z,70707.63
2022-10-03T11:36:58.042Z,70723.63
2022-10-03T11:40:13.931Z,70759.78
2022-10-03T11:43:25.745Z,70722.78
2022-10-03T11:46:22.900Z,70693.69
2022-10-03T11:49:24.782Z,70718.84
2022-10-03T11:52:18.993Z,70669.03
2022-10-03T11:54:49.447Z,70693.69
2022-10-03T11:57:31.298Z,70681.91
2022-10-03T12:00:20.272Z,70678.00
2022-10-03T12:03:36.968Z,70663.78
2022-10-03T12:06:36.698Z,70754.25
2022-10-03T12:09:27.558Z,70768.84
2022-10-03T12:12:15.082Z,70780.38
2022-10-03T12:14:51.202Z,70809.56
2022-10-03T12:17:35.285Z,70740.50
2022-10-03T12:20:24.500Z,70755.91
2022-10-03T12:23:16.338Z,70741.78
2022-10-03T12:25:47.477Z,70748.34
2022-10-03T12:28:32.655Z,70705.75
2022-10-03T12:31:18.780Z,70743.91
2022-10-03T12:34:08.689Z,70712.56
2022-10-03T12:37:08.901Z,70720.84
2022-10-03T12:40:00.848Z,70779.00
2022-10-03T12:42:39.241Z,70713.47
2022-10-03T12:45:11.834Z,70716.94
2022-10-03T12:48:09.856Z,70732.81
2022-10-03T12:51:16.154Z,70722.03
2022-10-03T12:54:29.344Z,70676.63
2022-10-03T12:57:55.873Z,70680.56
2022-10-03T13:00:32.429Z,70633.88
2022-10-03T13:03:19.948Z,70663.47
2022-10-03T13:07:01.685Z,70652.25
2022-10-03T13:09:33.568Z,70658.84
2022-10-03T13:12:07.650Z,70655.31
2022-10-03T13:15:11.791Z,70623.34
2022-10-03T13:18:01.525Z,70645.22
2022-10-03T13:20:39.173Z,70653.47
2022-10-03T13:23:42.692Z,70637.53
2022-10-03T13:26:22.314Z,70659.63
2022-10-03T13:29:23.596Z,70682.41
2022-10-03T13:32:21.871Z,70718.38
2022-10-03T13:35:58.629Z,70680.47
2022-10-03T13:39:09.551Z,70706.41
2022-10-03T13:42:08.241Z,70759.94
2022-10-03T13:45:03.431Z,70802.63
2022-10-03T13:47:55.847Z,70765.72
2022-10-03T13:50:39.592Z,70754.91
2022-10-03T13:53:36.564Z,70775.06
2022-10-03T13:56:59.895Z,70760.00
2022-10-03T13:59:55.198Z,70725.28
2022-10-03T14:03:02.093Z,70722.41
2022-10-03T14:05:51.087Z,70689.38
2022-10-03T14:08:44.514Z,70672.88
2022-10-03T14:11:27.005Z,70668.19
2022-10-03T14:14:10.692Z,70684.47
2022-10-03T14:17:01.798Z,70658.31
2022-10-03T14:20:03.400Z,70620.81
2022-10-03T14:22:39.146Z,70614.66
2022-10-03T14:25:20.620Z,70612.34
2022-10-03T14:28:20.665Z,70602.97
2022-10-03T14:31:15.114Z,70566.97
2022-10-03T14:34:32.181Z,70602.38
2022-10-03T14:37:05.254Z,70640.81
2022-10-03T14:40:06.236Z,70625.91
2022-10-03T14:42:48.249Z,70616.47
2022-10-03T14:45:22.355Z,70628.84
2022-10-03T14:47:56.619Z,70679.63
2022-10-03T14:50:29.440Z,70660.13
2022-10-03T14:53:06.288Z,70678.34
2022-10-03T14:55:46.169Z,70689.47
2022-10-03T14:58:33.487Z,70685.91
2022-10-03T15:01:12.373Z,70716.00
2022-10-03T15:04:07.006Z,70674.59
2022-10-03T15:07:04.934Z,70704.19
2022-10-03T15:09:42.891Z,70659.00
2022-10-03T15:12:23.948Z,70694.78
2022-10-03T15:15:03.608Z,70692.75
2022-10-03T15:17:43.189Z,70684.69
2022-10-03T15:20:12.540Z,70684.72
2022-10-03T15:22:46.701Z,70662.31
2022-10-03T15:25:42.540Z,70709.63
2022-10-03T15:28:19.677Z,70656.44
2022-10-03T15:30:49.896Z,70638.09
2022-10-03T15:33:29.006Z,70627.50
2022-10-03T15:36:06.509Z,70661.72
2022-10-03T15:38:41.902Z,70673.25
2022-10-03T15:42:20.093Z,70654.09
2022-10-03T15:45:05.418Z,70625.78
2022-10-03T15:47:44.870Z,70625.19
2022-10-03T15:50:24.818Z,70601.91
2022-10-03T15:53:12.383Z,70630.56
2022-10-03T15:55:54.159Z,70591.31
2022-10-03T15:58:33.632Z,70665.72
2022-10-03T16:01:13.540Z,70609.94
2022-10-03T16:03:49.988Z,70642.13
2022-10-03T16:06:47.577Z,70660.38
2022-10-03T16:09:21.861Z,70618.13
2022-10-03T16:12:46.364Z,70677.84
2022-10-03T16:15:27.000Z,70646.03
2022-10-03T16:18:18.067Z,70639.22
2022-10-03T16:21:00.417Z,70611.19
2022-10-03T16:23:40.522Z,70616.53
2022-10-03T16:26:19.472Z,70590.00
2022-10-03T16:29:11.663Z,70612.44
2022-10-03T16:31:51.816Z,70638.47
2022-10-03T16:34:25.587Z,70570.53
2022-10-03T16:36:54.661Z,70616.00
2022-10-03T16:39:32.631Z,70612.50
2022-10-03T16:42:10.892Z,70581.25
2022-10-03T16:44:52.552Z,70596.00
2022-10-03T16:47:35.238Z,70565.91
2022-10-03T16:50:40.203Z,70566.50
2022-10-03T16:53:11.172Z,70573.03
2022-10-03T16:56:07.194Z,70581.88
2022-10-03T16:58:43.673Z,70578.28
2022-10-03T17:01:32.226Z,70523.72
2022-10-03T17:04:53.389Z,70571.81
2022-10-03T17:07:25.800Z,70574.78
2022-10-03T17:09:59.306Z,70568.88
2022-10-03T17:12:38.359Z,70540.06
2022-10-03T17:15:15.925Z,70554.28
2022-10-03T17:18:15.726Z,70518.88
2022-10-03T17:21:19.045Z,70554.34
2022-10-03T17:24:06.996Z,70525.75
2022-10-03T17:26:50.132Z,70526.03
2022-10-03T17:29:42.164Z,70514.84
2022-10-03T17:32:51.646Z,70505.09
2022-10-03T17:35:49.408Z,70535.50
2022-10-03T17:38:48.560Z,70519.56
2022-10-03T17:41:50.310Z,70532.00
2022-10-03T17:44:45.349Z,70519.03
2022-10-03T17:47:35.725Z,70524.28
2022-10-03T17:50:31.327Z,70505.72
2022-10-03T17:53:01.525Z,70516.91
2022-10-03T17:56:00.557Z,70504.81
2022-10-03T17:58:31.899Z,70523.97
2022-10-03T18:01:17.832Z,70503.06
2022-10-03T18:03:56.744Z,70504.81
2022-10-03T18:06:31.640Z,70549.06
2022-10-03T18:09:07.027Z,70529.03
2022-10-03T18:11:37.523Z,70542.28
2022-10-03T18:14:27.503Z,70532.53
2022-10-03T18:17:19.504Z,70520.69
2022-10-03T18:20:22.805Z,70482.41
2022-10-03T18:23:03.236Z,70543.72
2022-10-03T18:26:20.577Z,70549.09
2022-10-03T18:29:16.341Z,70523.16
2022-10-03T18:31:55.469Z,70517.31
2022-10-03T18:34:43.870Z,70477.22
2022-10-03T18:37:31.025Z,70516.81
2022-10-03T18:40:01.479Z,70449.91
2022-10-03T18:42:30.863Z,70482.06
2022-10-03T18:45:01.404Z,70463.78
2022-10-03T18:47:37.440Z,70455.56
2022-10-03T18:50:26.513Z,70484.97
2022-10-03T18:53:15.917Z,70475.91
2022-10-03T18:55:59.326Z,70446.16
2022-10-03T18:58:43.733Z,70440.28
2022-10-03T19:01:54.341Z,70460.88
2022-10-03T19:04:45.432Z,70464.41
2022-10-03T19:07:25.867Z,70480.91
2022-10-03T19:10:54.443Z,70475.31
2022-10-03T19:14:01.231Z,70487.13
2022-10-03T19:16:44.224Z,70469.50
2022-10-03T19:19:35.118Z,70452.75
2022-10-03T19:22:06.720Z,70455.69
2022-10-03T19:24:57.377Z,70435.34
2022-10-03T19:28:10.511Z,70416.59
2022-10-03T19:30:40.262Z,70435.13
2022-10-03T19:33:21.772Z,70444.59
2022-10-03T19:35:52.747Z,70442.69
2022-10-03T19:38:38.161Z,70418.25
2022-10-03T19:41:25.999Z,70435.16
2022-10-03T19:43:55.486Z,70448.16
2022-10-03T19:47:06.188Z,70461.03
2022-10-03T19:49:54.018Z,70423.56
2022-10-03T19:52:42.197Z,70425.06
2022-10-03T19:55:22.071Z,70433.97
2022-10-03T19:57:55.650Z,70431.84
2022-10-03T20:00:29.115Z,70436.81
2022-10-03T20:03:34.508Z,70410.00
2022-10-03T20:06:18.266Z,70429.19
2022-10-03T20:08:57.009Z,70418.81
2022-10-03T20:11:47.805Z,70430.31
2022-10-03T20:14:28.478Z,70469.22
2022-10-03T20:17:02.232Z,70385.56
2022-10-03T20:20:05.035Z,70419.75
2022-10-03T20:22:36.499Z,70427.09
2022-10-03T20:25:08.295Z,70446.28
2022-10-03T20:27:45.756Z,70452.16
2022-10-03T20:30:28.541Z,70425.63
2022-10-03T20:32:59.308Z,70427.41
2022-10-03T20:35:52.657Z,70413.28
2022-10-03T20:39:01.239Z,70425.69
2022-10-03T20:41:43.403Z,70458.38
2022-10-03T20:44:45.757Z,70415.31
2022-10-03T20:47:33.469Z,70402.63
2022-10-03T20:50:12.385Z,70429.16
2022-10-03T20:52:39.920Z,70446.22
2022-10-03T20:55:19.859Z,70445.59
2022-10-03T20:58:32.024Z,70467.44
2022-10-03T21:01:10.930Z,70454.75
2022-10-03T21:03:57.383Z,70461.50
2022-10-03T21:06:57.868Z,70425.53
2022-10-03T21:10:10.365Z,70438.84
2022-10-03T21:12:49.875Z,70476.84
2022-10-03T21:15:30.106Z,70453.88
2022-10-03T21:17:58.189Z,70452.41
2022-10-03T21:20:37.576Z,70426.16
2022-10-03T21:23:20.549Z,70434.38
2022-10-03T21:25:54.264Z,70475.63
2022-10-03T21:28:37.669Z,70467.97
2022-10-03T21:31:35.065Z,70465.59
2022-10-03T21:34:33.038Z,70411.94
2022-10-03T21:37:32.076Z,70435.53
2022-10-03T21:40:43.869Z,70476.53
2022-10-03T21:43:51.797Z,70497.16
2022-10-03T21:46:42.879Z,70420.22
2022-10-03T21:49:24.898Z,70437.38
2022-10-03T21:52:09.757Z,70516.03
2022-10-03T21:55:17.412Z,70443.16
2022-10-03T21:58:34.990Z,70432.88
2022-10-03T22:01:49.093Z,70454.72
2022-10-03T22:04:34.078Z,70459.22
2022-10-03T22:07:18.151Z,70452.44
2022-10-03T22:09:49.543Z,70429.44
2022-10-03T22:12:18.172Z,70464.16
2022-10-03T22:15:08.421Z,70478.06
2022-10-03T22:18:02.109Z,70454.50
2022-10-03T22:20:34.547Z,70443.25
2022-10-03T22:23:22.402Z,70438.88
2022-10-03T22:25:57.395Z,70435.59
2022-10-03T22:28:56.114Z,70441.22
2022-10-03T22:31:49.186Z,70476.59
2022-10-03T22:34:45.768Z,70446.22
2022-10-03T22:37:14.807Z,70428.88
2022-10-03T22:39:42.884Z,70452.69
2022-10-03T22:42:15.132Z,70453.88
2022-10-03T22:44:52.541Z,70473.91
2022-10-03T22:47:30.218Z,70459.19
2022-10-03T22:50:04.794Z,70440.28
2022-10-03T22:52:41.151Z,70447.31
2022-10-03T22:55:14.176Z,70461.50
2022-10-03T22:57:45.229Z,70416.50
2022-10-03T23:00:23.305Z,70462.13
2022-10-03T23:03:09.917Z,70437.94
2022-10-03T23:05:58.380Z,70442.94
2022-10-03T23:08:43.489Z,70516.34
2022-10-03T23:11:27.338Z,70440.56
2022-10-03T23:14:01.275Z,70428.53
2022-10-03T23:16:58.697Z,70487.44
2022-10-03T23:20:09.094Z,70440.28
2022-10-03T23:22:43.873Z,70456.81
2022-10-03T23:25:25.830Z,70430.63
2022-10-03T23:28:21.130Z,70439.75
2022-10-03T23:30:53.290Z,70456.84
2022-10-03T23:33:43.611Z,70479.84
2022-10-03T23:36:24.399Z,70422.94
2022-10-03T23:38:58.820Z,70422.69
2022-10-03T23:41:57.770Z,70407.41
2022-10-03T23:44:37.515Z,70415.69
2022-10-03T23:47:09.248Z,70419.22
2022-10-03T23:49:41.207Z,70424.56
2022-10-03T23:52:19.735Z,70392.72
2022-10-03T23:54:49.223Z,70449.91
2022-10-03T23:57:20.204Z,70410.44
2022-10-03T23:59:49.494Z,70404.06
